Time;durP1;ratioP1;P1;durP2;ratioP2;P2;SDS_P1;SDS_P2;PMS_P1;PMS_P2;Temp;Humidity;BMP_temperature;BMP_pressure;BME280_temperature;BME280_humidity;BME280_pressure;Samples;Min_cycle;Max_cycle;Signal;HPM_P1;HPM_P2
2022/03/13 00:00:00;;;;;;;33.97;11.50;;;;;;;-145.69;67.80;72608.44;5073388;28;20227;-77
2022/03/13 00:02:27;;;;;;;31.25;12.57;;;;;;;-145.69;66.10;72568.63;5070651;28;20513;-77
2022/03/13 00:04:56;;;;;;;27.13;10.60;;;;;;;-145.69;65.78;72546.72;5073156;28;20297;-77
2022/03/13 00:07:28;;;;;;;27.17;10.43;;;;;;;-145.69;65.67;72560.66;5073365;28;20199;-78
2022/03/13 00:09:55;;;;;;;25.33;10.70;;;;;;;-145.69;65.11;72564.66;5073004;28;20248;-77
2022/03/13 00:12:30;;;;;;;29.33;11.53;;;;;;;-145.69;67.07;72594.50;5073034;28;20224;-77
2022/03/13 00:15:01;;;;;;;25.03;10.13;;;;;;;-145.69;69.94;72624.34;5072897;28;20230;-77
2022/03/13 00:17:29;;;;;;;27.00;10.77;;;;;;;-145.69;69.51;72648.25;5073016;28;20287;-77
2022/03/13 00:20:00;;;;;;;24.17;9.87;;;;;;;-145.69;70.18;72676.09;5072906;28;20226;-77
2022/03/13 00:22:28;;;;;;;34.30;11.77;;;;;;;-145.69;69.05;72648.25;5072741;28;20199;-77
2022/03/13 00:24:54;;;;;;;25.90;10.60;;;;;;;-145.69;69.48;72664.16;5072809;28;20198;-77
2022/03/13 00:27:21;;;;;;;27.80;10.20;;;;;;;-145.69;71.64;72692.03;5072919;28;20203;-78
2022/03/13 00:29:48;;;;;;;29.67;9.97;;;;;;;-145.69;71.34;72682.09;5072778;28;20205;-78
2022/03/13 00:32:15;;;;;;;27.90;10.60;;;;;;;-145.69;71.21;72664.16;5073066;28;20198;-77
2022/03/13 00:34:42;;;;;;;25.80;10.83;;;;;;;-145.69;70.89;72660.19;5072979;28;20604;-78
2022/03/13 00:37:08;;;;;;;28.57;11.10;;;;;;;-145.69;72.07;72664.16;5072764;28;20653;-78
2022/03/13 00:39:38;;;;;;;25.97;10.63;;;;;;;-145.69;73.36;72700.00;5072738;28;20272;-78
2022/03/13 00:42:05;;;;;;;29.87;10.70;;;;;;;-145.69;73.28;72715.91;5072632;28;20203;-78
2022/03/13 00:44:31;;;;;;;26.67;10.40;;;;;;;-145.69;73.82;72731.84;5073110;28;20550;-78
2022/03/13 00:46:58;;;;;;;28.57;10.00;;;;;;;-145.69;74.58;72745.78;5072563;28;20229;-78
2022/03/13 00:49:24;;;;;;;23.47;9.30;;;;;;;-145.69;74.63;72771.66;5072494;28;20203;-77
2022/03/13 00:51:51;;;;;;;30.77;10.77;;;;;;;-145.69;75.97;72753.75;5072343;28;20266;-77
2022/03/13 00:54:17;;;;;;;28.73;10.43;;;;;;;-145.69;75.98;72767.69;5072768;28;20202;-77
2022/03/13 00:56:45;;;;;;;25.70;10.27;;;;;;;-145.69;77.43;72781.59;5075058;28;20195;-77
2022/03/13 00:59:11;;;;;;;23.13;10.10;;;;;;;-145.69;77.39;72787.56;5076626;28;20526;-77
2022/03/13 01:01:38;;;;;;;25.60;10.47;;;;;;;-145.69;77.37;72759.72;5077038;28;20207;-77
2022/03/13 01:04:05;;;;;;;25.50;10.07;;;;;;;-145.69;78.31;72765.69;5077017;28;20198;-78
2022/03/13 01:06:31;;;;;;;28.33;11.07;;;;;;;-145.69;78.12;72775.63;5076975;28;20198;-77
2022/03/13 01:08:58;;;;;;;22.87;9.17;;;;;;;-145.69;77.04;72753.75;5076852;28;20260;-77
2022/03/13 01:11:24;;;;;;;26.33;9.93;;;;;;;-145.69;76.04;72733.84;5076455;28;20558;-77
2022/03/13 01:13:52;;;;;;;32.13;12.18;;;;;;;-145.69;73.45;72692.03;5075836;28;20442;-77
2022/03/13 01:16:22;;;;;;;23.50;10.40;;;;;;;-145.69;74.04;72688.06;5076868;28;20624;-77
2022/03/13 01:18:49;;;;;;;27.53;10.87;;;;;;;-145.69;75.17;72711.94;5076286;28;20656;-77
2022/03/13 01:21:17;;;;;;;27.97;9.63;;;;;;;-145.69;74.93;72703.97;5076461;28;20227;-77
2022/03/13 01:24:17;;;;;;;29.73;11.03;;;;;;;-145.69;74.80;72703.97;5076381;28;20674;-76
2022/03/13 01:26:44;;;;;;;27.40;10.70;;;;;;;-145.69;74.31;72717.91;5076657;28;20206;-77
2022/03/13 01:29:13;;;;;;;28.13;10.43;;;;;;;-145.69;74.80;72703.97;5076505;28;20203;-77
2022/03/13 01:31:44;;;;;;;24.90;10.13;;;;;;;-145.69;75.13;72711.94;5076530;28;20205;-77
2022/03/13 01:34:12;;;;;;;26.80;10.07;;;;;;;-145.69;75.70;72719.91;5071884;28;20200;-76
2022/03/13 01:36:39;;;;;;;30.87;11.10;;;;;;;-145.69;75.75;72731.84;5076220;28;20202;-77
2022/03/13 01:39:07;;;;;;;26.87;10.50;;;;;;;-145.69;78.04;72753.75;5076415;28;20608;-76
2022/03/13 01:41:35;;;;;;;25.80;9.93;;;;;;;-145.69;79.26;72767.69;5076215;28;20266;-77
2022/03/13 01:44:02;;;;;;;23.33;9.90;;;;;;;-145.69;79.46;72767.69;5076095;28;20206;-77
2022/03/13 01:46:30;;;;;;;27.83;10.03;;;;;;;-145.69;79.98;72783.59;5076190;28;20202;-77
2022/03/13 01:48:59;;;;;;;28.03;11.00;;;;;;;-145.69;78.64;72779.63;5075959;28;20244;-77
2022/03/13 01:51:27;;;;;;;23.53;9.87;;;;;;;-145.69;79.29;72805.50;5076277;28;20577;-76
2022/03/13 01:53:55;;;;;;;24.27;10.00;;;;;;;-145.69;80.54;72815.44;5075892;28;20657;-76
2022/03/13 01:56:22;;;;;;;24.70;10.60;;;;;;;-145.69;81.21;72831.38;5075948;28;20600;-75
2022/03/13 01:58:51;;;;;;;21.13;9.67;;;;;;;-145.69;82.89;72837.34;5075787;28;20207;-76
2022/03/13 02:01:18;;;;;;;24.00;10.30;;;;;;;-145.69;82.00;72817.44;5075705;28;20234;-76
2022/03/13 02:03:46;;;;;;;27.93;10.70;;;;;;;-145.69;81.22;72823.41;5075630;28;20198;-76
2022/03/13 02:06:13;;;;;;;29.17;11.00;;;;;;;-145.69;81.34;72819.44;5075812;28;20210;-76
2022/03/13 02:08:40;;;;;;;29.83;10.87;;;;;;;-145.69;81.90;72811.47;5075419;28;20210;-76
2022/03/13 02:11:08;;;;;;;26.40;10.73;;;;;;;-145.69;82.33;72823.41;5075452;28;20723;-76
2022/03/13 02:13:36;;;;;;;28.47;11.00;;;;;;;-145.69;82.44;72827.38;5075423;28;20244;-76
2022/03/13 02:16:03;;;;;;;26.80;10.80;;;;;;;-145.69;83.47;72829.38;5075498;28;20202;-76
2022/03/13 02:18:29;;;;;;;26.83;11.00;;;;;;;-145.69;83.92;72831.38;5075230;28;20199;-76
2022/03/13 02:20:57;;;;;;;26.77;10.40;;;;;;;-145.69;83.80;72833.38;5075362;28;20386;-76
2022/03/13 02:23:26;;;;;;;28.43;10.87;;;;;;;-145.69;84.46;72839.34;5075242;28;20199;-76
2022/03/13 02:25:54;;;;;;;31.03;11.43;;;;;;;-145.69;84.78;72843.31;5075377;28;20276;-76
2022/03/13 02:28:22;;;;;;;26.20;11.00;;;;;;;-145.69;85.91;72861.22;5075351;28;20206;-76
2022/03/13 02:30:49;;;;;;;32.60;12.00;;;;;;;-145.69;87.59;72853.28;5075241;28;20207;-76
2022/03/13 02:33:18;;;;;;;30.07;11.57;;;;;;;-145.69;87.46;72857.25;5075080;28;20557;-76
2022/03/13 02:35:55;;;;;;;26.47;11.13;;;;;;;-145.69;87.48;72877.16;5074976;28;20210;-76
2022/03/13 02:38:23;;;;;;;27.23;11.27;;;;;;;-145.69;87.95;72879.16;5075169;28;20209;-76
2022/03/13 02:40:50;;;;;;;25.70;10.43;;;;;;;-145.69;89.15;72883.13;5075159;28;20229;-75
2022/03/13 02:43:17;;;;;;;28.90;11.23;;;;;;;-145.69;88.07;72845.31;5074882;28;20674;-76
2022/03/13 02:45:44;;;;;;;32.33;12.50;;;;;;;-145.69;85.21;72815.44;5074522;28;20202;-76
2022/03/13 02:48:11;;;;;;;27.20;11.10;;;;;;;-145.69;84.48;72791.56;5074908;28;20780;-76
2022/03/13 02:50:39;;;;;;;29.27;11.83;;;;;;;-145.69;84.99;72785.59;5074738;28;20202;-77
2022/03/13 02:53:07;;;;;;;28.13;11.50;;;;;;;-145.69;82.82;72775.63;5074919;28;20221;-76
2022/03/13 02:55:34;;;;;;;26.30;10.50;;;;;;;-145.69;81.46;72759.72;5074676;28;20207;-77
2022/03/13 02:58:02;;;;;;;28.10;11.37;;;;;;;-145.69;79.17;72735.81;5074973;28;20195;-76
2022/03/13 03:00:44;;;;;;;29.00;10.57;;;;;;;-145.69;79.74;72747.78;5074341;28;20223;-75
2022/03/13 03:03:14;;;;;;;36.17;12.03;;;;;;;-145.69;80.49;72759.72;5074655;28;20281;-75
2022/03/13 03:05:40;;;;;;;29.00;10.90;;;;;;;-145.69;80.23;72775.63;5074506;28;20202;-75
2022/03/13 03:08:07;;;;;;;26.30;10.67;;;;;;;-145.69;80.81;72773.66;5074042;28;20198;-76
2022/03/13 03:10:35;;;;;;;30.63;10.60;;;;;;;-145.69;80.25;72773.66;5074712;28;20653;-77
2022/03/13 03:13:03;;;;;;;29.07;10.80;;;;;;;-145.69;81.31;72787.56;5074132;28;20290;-76
2022/03/13 03:15:29;;;;;;;28.67;10.50;;;;;;;-145.69;81.04;72781.59;5074727;28;20207;-76
2022/03/13 03:17:56;;;;;;;33.17;11.33;;;;;;;-145.69;81.39;72781.59;5073979;28;20661;-77
2022/03/13 03:20:23;;;;;;;30.07;11.07;;;;;;;-145.69;82.16;72785.59;5073743;28;20234;-77
2022/03/13 03:22:52;;;;;;;30.33;11.67;;;;;;;-145.69;81.73;72763.69;5073865;28;20209;-78
2022/03/13 03:25:22;;;;;;;31.13;11.23;;;;;;;-145.69;81.80;72767.69;5074294;28;20202;-78
2022/03/13 03:27:48;;;;;;;25.37;10.60;;;;;;;-145.69;83.17;72771.66;5073814;28;20653;-77
2022/03/13 03:30:19;;;;;;;30.77;12.30;;;;;;;-145.69;84.43;72799.53;5064764;28;20234;-76
2022/03/13 03:32:45;;;;;;;32.57;12.03;;;;;;;-145.69;85.08;72801.50;5053963;28;20684;-77
2022/03/13 03:35:12;;;;;;;29.67;11.30;;;;;;;-145.69;85.19;72811.47;5053863;28;20275;-77
2022/03/13 03:37:38;;;;;;;28.03;11.23;;;;;;;-145.69;85.22;72811.47;5054163;28;20249;-77
2022/03/13 03:40:06;;;;;;;33.80;11.37;;;;;;;-145.69;85.21;72819.44;5053650;28;20708;-77
2022/03/13 03:42:33;;;;;;;27.90;10.60;;;;;;;-145.69;83.58;72801.50;5053976;28;20226;-76
2022/03/13 03:45:00;;;;;;;30.53;11.30;;;;;;;-145.69;83.33;72791.56;5053527;28;20282;-76
2022/03/13 03:47:28;;;;;;;27.43;11.07;;;;;;;-145.69;82.73;72779.63;5053684;28;20202;-77
2022/03/13 03:49:54;;;;;;;31.33;11.00;;;;;;;-145.69;81.91;72765.69;5053325;28;20289;-77
2022/03/13 03:52:21;;;;;;;29.67;10.77;;;;;;;-145.69;82.42;72763.69;5053987;28;20250;-77
2022/03/13 03:54:47;;;;;;;32.33;12.00;;;;;;;-145.69;82.28;72761.69;5053785;28;20597;-76
2022/03/13 03:57:13;;;;;;;31.93;11.67;;;;;;;-145.69;82.88;72771.66;5053999;28;20308;-75
2022/03/13 03:59:40;;;;;;;31.57;12.37;;;;;;;-145.69;81.78;72755.72;5053509;28;20199;-75
2022/03/13 04:02:06;;;;;;;30.80;11.37;;;;;;;-145.69;81.35;72759.72;5053317;28;20223;-75
2022/03/13 04:04:34;;;;;;;29.53;12.13;;;;;;;-145.69;81.75;72757.72;5053509;28;20203;-77
2022/03/13 04:07:01;;;;;;;29.50;11.97;;;;;;;-145.69;81.77;72759.72;5053300;28;20211;-76
2022/03/13 04:09:27;;;;;;;30.40;11.37;;;;;;;-145.69;82.49;72753.75;5053393;28;20203;-76
2022/03/13 04:11:53;;;;;;;29.20;10.97;;;;;;;-145.69;82.14;72759.72;5060510;28;20204;-75
2022/03/13 04:14:21;;;;;;;32.30;11.73;;;;;;;-145.69;82.16;72749.75;5073146;28;20257;-76
2022/03/13 04:16:48;;;;;;;30.03;11.60;;;;;;;-145.69;81.39;72743.78;5073248;28;20226;-75
2022/03/13 04:19:15;;;;;;;32.70;11.50;;;;;;;-145.69;82.13;72759.72;5073013;28;20207;-76
2022/03/13 04:21:42;;;;;;;26.77;10.77;;;;;;;-145.69;81.99;72759.72;5073012;28;20620;-77
2022/03/13 04:24:10;;;;;;;36.63;12.20;;;;;;;-145.69;82.74;72751.75;5072820;28;20199;-77
2022/03/13 04:26:39;;;;;;;31.03;11.53;;;;;;;-145.69;82.77;72755.72;5073071;28;20226;-77
2022/03/13 04:29:06;;;;;;;29.87;11.83;;;;;;;-145.69;83.08;72763.69;5072928;28;20207;-76
2022/03/13 04:31:36;;;;;;;36.20;12.43;;;;;;;-145.69;82.28;72739.81;5072161;28;20208;-76
2022/03/13 04:34:02;;;;;;;33.47;12.40;;;;;;;-145.69;82.23;72733.84;5073282;28;20306;-76
2022/03/13 04:36:32;;;;;;;26.47;11.33;;;;;;;-145.69;81.81;72735.81;5072699;28;20711;-77
2022/03/13 04:39:01;;;;;;;28.50;11.50;;;;;;;-145.69;82.95;72751.75;5072832;28;20270;-77
2022/03/13 04:41:28;;;;;;;31.50;11.70;;;;;;;-145.69;82.76;72751.75;5072709;28;20226;-76
2022/03/13 04:43:54;;;;;;;34.30;12.17;;;;;;;-145.69;82.50;72745.78;5072630;28;20285;-76
2022/03/13 04:46:21;;;;;;;34.40;12.33;;;;;;;-145.69;82.92;72757.72;5072384;28;20210;-76
2022/03/13 04:48:47;;;;;;;26.60;10.83;;;;;;;-145.69;82.36;72755.72;5072962;28;20206;-75
2022/03/13 04:51:14;;;;;;;35.47;14.40;;;;;;;-145.69;83.66;72761.69;5072237;28;20802;-76
2022/03/13 04:53:40;;;;;;;29.03;11.83;;;;;;;-145.69;84.03;72783.59;5072741;28;20202;-75
2022/03/13 04:56:08;;;;;;;28.53;12.00;;;;;;;-145.69;84.11;72775.63;5072713;28;20198;-75
2022/03/13 04:58:35;;;;;;;29.13;11.67;;;;;;;-145.69;83.72;72763.69;5072494;28;20225;-77
2022/03/13 05:01:02;;;;;;;30.23;11.70;;;;;;;-145.69;83.97;72759.72;5072706;28;20271;-77
2022/03/13 05:03:32;;;;;;;26.20;10.87;;;;;;;-145.69;83.48;72755.72;5072699;28;20199;-77
2022/03/13 05:05:58;;;;;;;24.77;10.47;;;;;;;-145.69;83.68;72759.72;5072429;28;20561;-77
2022/03/13 05:08:26;;;;;;;29.23;11.47;;;;;;;-145.69;83.36;72753.75;5072280;28;20198;-78
2022/03/13 05:10:53;;;;;;;24.10;10.43;;;;;;;-145.69;83.80;72765.69;5072410;28;20230;-76
2022/03/13 05:13:22;;;;;;;28.47;11.57;;;;;;;-145.69;84.81;72783.59;5072508;28;20222;-76
2022/03/13 05:15:48;;;;;;;25.60;10.07;;;;;;;-145.69;84.30;72777.63;5072548;28;20658;-75
2022/03/13 05:18:15;;;;;;;29.93;11.27;;;;;;;-145.69;84.86;72789.56;5072448;28;20195;-76
2022/03/13 05:20:42;;;;;;;27.60;10.27;;;;;;;-145.69;84.85;72779.63;5072537;28;20199;-75
2022/03/13 05:23:09;;;;;;;24.17;9.20;;;;;;;-145.69;84.87;72777.63;5072384;28;20736;-75
2022/03/13 05:25:37;;;;;;;25.87;10.77;;;;;;;-145.69;83.98;72775.63;5072248;28;20206;-75
2022/03/13 05:28:05;;;;;;;30.20;10.30;;;;;;;-145.69;83.90;72777.63;5072623;28;20277;-75
2022/03/13 05:30:33;;;;;;;27.43;9.87;;;;;;;-145.69;83.98;72779.63;5072571;28;20211;-76
2022/03/13 05:32:59;;;;;;;23.53;9.60;;;;;;;-145.69;84.02;72775.63;5072531;28;20260;-76
2022/03/13 05:35:26;;;;;;;21.20;9.23;;;;;;;-145.69;84.06;72763.69;5072186;28;20569;-75
2022/03/13 05:37:53;;;;;;;26.10;10.03;;;;;;;-145.69;83.52;72761.69;5066074;28;20203;-75
2022/03/13 05:40:21;;;;;;;25.40;9.70;;;;;;;-145.69;84.19;72771.66;5052233;28;20226;-75
2022/03/13 05:42:50;;;;;;;21.60;8.73;;;;;;;-145.69;83.63;72765.69;5054929;28;20636;-75
2022/03/13 05:45:19;;;;;;;24.03;9.73;;;;;;;-145.69;84.65;72779.63;5056222;28;20203;-75
2022/03/13 05:47:48;;;;;;;24.93;9.60;;;;;;;-145.69;84.53;72767.69;5056042;28;20218;-75
2022/03/13 05:50:16;;;;;;;22.33;9.30;;;;;;;-145.69;84.40;72775.63;5055622;28;20203;-75
2022/03/13 05:52:45;;;;;;;23.50;9.20;;;;;;;-145.69;84.89;72779.63;5055762;28;20195;-75
2022/03/13 05:55:12;;;;;;;25.00;9.00;;;;;;;-145.69;84.54;72779.63;5055700;28;20257;-76
2022/03/13 05:57:39;;;;;;;25.20;8.83;;;;;;;-145.69;84.54;72779.63;5055504;28;20663;-75
2022/03/13 06:00:08;;;;;;;24.87;8.13;;;;;;;-145.69;83.58;72761.69;5055873;28;20203;-75
2022/03/13 06:02:40;;;;;;;21.83;8.70;;;;;;;-145.69;84.11;72765.69;5055756;28;20620;-76
2022/03/13 06:05:10;;;;;;;19.10;7.90;;;;;;;-145.69;82.28;72755.72;5055691;28;20200;-76
2022/03/13 06:07:37;;;;;;;23.23;8.37;;;;;;;-145.69;82.85;72743.78;5055432;28;20206;-76
2022/03/13 06:10:05;;;;;;;20.97;8.20;;;;;;;-145.69;81.97;72743.78;5055612;28;20257;-76
2022/03/13 06:12:32;;;;;;;16.60;7.57;;;;;;;-145.69;82.67;72733.84;5068056;28;20661;-76
2022/03/13 06:14:58;;;;;;;22.40;8.13;;;;;;;-145.69;81.16;72727.88;5075522;28;20234;-76
2022/03/13 06:17:25;;;;;;;21.30;7.80;;;;;;;-145.69;80.56;72707.97;5075328;28;20199;-75
2022/03/13 06:19:52;;;;;;;19.47;7.67;;;;;;;-145.69;80.15;72700.00;5074972;28;20225;-76
2022/03/13 06:22:21;;;;;;;16.93;7.67;;;;;;;-145.69;80.37;72696.00;5075087;28;20731;-76
2022/03/13 06:24:47;;;;;;;17.77;7.40;;;;;;;-145.69;79.73;72686.06;5075475;28;20199;-76
2022/03/13 06:27:14;;;;;;;16.17;7.33;;;;;;;-145.69;79.50;72682.09;5075256;28;20629;-76
2022/03/13 06:29:41;;;;;;;17.37;7.60;;;;;;;-145.69;79.84;72684.06;5075400;28;20206;-77
2022/03/13 06:32:08;;;;;;;15.50;7.10;;;;;;;-145.69;79.67;72678.09;5075265;28;20555;-75
2022/03/13 06:34:36;;;;;;;22.60;7.53;;;;;;;-145.69;79.18;72656.22;5075539;28;20207;-77
2022/03/13 06:37:03;;;;;;;17.33;6.67;;;;;;;-145.69;79.22;72656.22;5075359;28;20688;-76
2022/03/13 06:39:31;;;;;;;17.47;7.10;;;;;;;-145.69;79.29;72640.28;5075292;28;20662;-76
2022/03/13 06:41:58;;;;;;;16.93;7.10;;;;;;;-145.69;78.20;72632.31;5075197;28;20226;-76
2022/03/13 06:44:24;;;;;;;14.47;6.17;;;;;;;-145.69;78.10;72626.34;5075141;28;20202;-76
2022/03/13 06:46:50;;;;;;;17.30;7.20;;;;;;;-145.69;78.15;72616.41;5075088;28;20203;-75
2022/03/13 06:49:17;;;;;;;17.30;7.30;;;;;;;-145.69;78.10;72604.44;5074399;28;20558;-76
2022/03/13 06:51:43;;;;;;;13.37;5.93;;;;;;;-145.69;77.67;72590.53;5075026;28;20260;-76
2022/03/13 06:54:11;;;;;;;14.07;5.57;;;;;;;-145.69;77.35;72564.66;5074271;28;20202;-76
2022/03/13 06:56:40;;;;;;;15.93;6.37;;;;;;;-145.69;72.48;72528.81;5075093;28;20207;-76
2022/03/13 06:59:07;;;;;;;14.87;6.00;;;;;;;-145.69;72.81;72520.84;5074351;28;20213;-76
2022/03/13 07:01:34;;;;;;;16.60;6.10;;;;;;;-145.69;74.27;72510.91;5074812;28;20276;-76
2022/03/13 07:04:01;;;;;;;13.37;5.73;;;;;;;-145.69;73.93;72481.03;5074532;28;20749;-76
2022/03/13 07:06:28;;;;;;;12.33;5.67;;;;;;;-145.69;74.14;72477.06;5074674;28;20203;-76
2022/03/13 07:08:55;;;;;;;13.67;5.67;;;;;;;-145.69;73.67;72449.19;5074744;28;20205;-76
2022/03/13 07:11:22;;;;;;;15.17;5.53;;;;;;;-145.69;72.97;72423.31;5074342;28;20198;-76
2022/03/13 07:13:50;;;;;;;12.27;4.90;;;;;;;-145.69;72.31;72407.41;5074289;28;20317;-76
2022/03/13 07:16:17;;;;;;;14.67;5.63;;;;;;;-145.69;70.26;72377.53;5074271;28;20207;-76
2022/03/13 07:18:43;;;;;;;12.20;5.17;;;;;;;-145.69;69.31;72363.63;5074306;28;20201;-76
2022/03/13 07:21:10;;;;;;;10.00;4.63;;;;;;;-145.69;69.44;72349.69;5074326;28;20199;-76
2022/03/13 07:23:37;;;;;;;12.93;5.00;;;;;;;-145.69;68.20;72325.81;5074330;28;20234;-76
2022/03/13 07:26:04;;;;;;;10.77;4.73;;;;;;;-145.69;67.10;72303.91;5074556;28;20214;-78
2022/03/13 07:28:30;;;;;;;10.90;5.23;;;;;;;-145.69;65.94;72274.06;5073954;28;20206;-77
2022/03/13 07:30:58;;;;;;;11.40;5.23;;;;;;;-145.69;63.88;72242.22;5074337;28;20236;-76
2022/03/13 07:33:25;;;;;;;10.13;4.87;;;;;;;-145.69;63.66;72214.34;5074190;28;20206;-77
2022/03/13 07:35:51;;;;;;;9.70;4.43;;;;;;;-145.69;64.39;72202.41;5073751;28;20202;-76
2022/03/13 07:38:18;;;;;;;9.67;4.97;;;;;;;-145.69;62.95;72184.50;5074062;28;20557;-76
2022/03/13 07:40:44;;;;;;;10.60;4.87;;;;;;;-145.69;62.39;72166.56;5059400;28;20207;-77
2022/03/13 07:43:12;;;;;;;15.20;6.53;;;;;;;-145.69;60.92;72146.69;5053744;28;20684;-76
2022/03/13 07:45:39;;;;;;;9.83;5.40;;;;;;;-145.69;61.78;72134.72;5053967;28;20207;-76
2022/03/13 07:48:06;;;;;;;10.93;4.67;;;;;;;-145.69;61.29;72116.81;5053759;28;20261;-76
2022/03/13 07:50:33;;;;;;;9.27;4.40;;;;;;;-145.69;60.25;72088.97;5053629;28;20199;-76
2022/03/13 07:53:00;;;;;;;12.40;5.13;;;;;;;-145.69;55.78;72061.09;5053597;28;20688;-77
2022/03/13 07:55:26;;;;;;;11.40;4.63;;;;;;;-145.69;53.46;72041.19;5053697;28;20203;-77
2022/03/13 07:57:53;;;;;;;12.77;5.13;;;;;;;-145.69;50.39;72019.31;5053045;28;20203;-77
2022/03/13 08:00:22;;;;;;;10.53;4.70;;;;;;;-145.69;50.79;71991.44;5053243;28;20206;-77
2022/03/13 08:02:48;;;;;;;10.07;4.83;;;;;;;-145.69;52.19;71971.53;5053147;28;20563;-76
2022/03/13 08:05:18;;;;;;;10.57;5.20;;;;;;;-145.69;51.13;71947.66;5053440;28;20199;-76
2022/03/13 08:07:45;;;;;;;9.13;4.27;;;;;;;-145.69;50.91;71927.75;5053754;28;20234;-76
2022/03/13 08:10:12;;;;;;;9.97;4.77;;;;;;;-145.69;50.63;71899.88;5053186;28;20203;-76
2022/03/13 08:12:39;;;;;;;9.13;4.70;;;;;;;-145.69;49.33;71876.00;5066716;28;20581;-76
2022/03/13 08:15:07;;;;;;;10.27;5.07;;;;;;;-145.69;49.12;71856.09;5072892;28;20199;-75
2022/03/13 08:17:34;;;;;;;10.47;5.30;;;;;;;-145.69;43.60;71834.22;5073232;28;20610;-75
2022/03/13 08:20:00;;;;;;;11.70;5.30;;;;;;;-145.69;46.74;71806.34;5072886;28;20207;-77
2022/03/13 08:22:28;;;;;;;11.43;5.67;;;;;;;-145.69;45.32;71798.41;5073090;28;20235;-77
2022/03/13 08:24:55;;;;;;;11.07;5.23;;;;;;;-145.69;43.38;71784.47;5072608;28;20207;-76
2022/03/13 08:27:21;;;;;;;11.80;5.73;;;;;;;-145.69;42.64;71772.53;5073278;28;20198;-76
2022/03/13 08:29:48;;;;;;;15.93;6.70;;;;;;;-145.69;41.85;71744.66;5073013;28;20253;-76
2022/03/13 08:32:15;;;;;;;10.07;5.07;;;;;;;-145.69;41.91;71732.72;5073378;28;20206;-76
2022/03/13 08:34:42;;;;;;;16.27;6.70;;;;;;;-145.69;40.91;71716.81;5073145;28;20195;-76
2022/03/13 08:37:09;;;;;;;17.43;6.97;;;;;;;-145.69;40.38;71702.88;5072896;28;20558;-78
2022/03/13 08:39:40;;;;;;;19.10;8.17;;;;;;;-145.69;40.21;71684.97;5073041;28;20217;-78
2022/03/13 08:42:10;;;;;;;15.83;7.27;;;;;;;-145.69;40.41;71680.97;5073021;28;20233;-78
2022/03/13 08:44:37;;;;;;;19.27;8.88;;;;;;;-145.69;41.80;71677.00;5072120;28;21037;-76
2022/03/13 08:47:05;;;;;;;25.70;10.23;;;;;;;-145.69;41.43;71673.03;5072628;28;20195;-76
2022/03/13 08:49:32;;;;;;;17.80;8.23;;;;;;;-145.69;40.66;71661.09;5073117;28;20198;-77
2022/03/13 08:51:58;;;;;;;31.23;11.07;;;;;;;-145.69;40.51;71653.13;5072689;28;20194;-77
2022/03/13 08:54:25;;;;;;;19.63;8.80;;;;;;;-145.69;40.60;71651.13;5072773;28;20234;-77
2022/03/13 08:56:53;;;;;;;20.77;9.03;;;;;;;-145.69;41.76;71635.22;5072902;28;20209;-77
2022/03/13 08:59:20;;;;;;;18.83;8.80;;;;;;;-145.69;41.67;71633.22;5072712;28;20198;-77
2022/03/13 09:01:47;;;;;;;20.83;8.43;;;;;;;-145.69;40.06;71633.22;5072690;28;20531;-77
2022/03/13 09:04:13;;;;;;;22.63;10.23;;;;;;;-145.69;40.89;71609.34;5072657;28;20244;-77
2022/03/13 09:06:42;;;;;;;22.10;9.70;;;;;;;-145.69;41.82;71609.34;5072368;28;20210;-77
2022/03/13 09:09:12;;;;;;;20.03;9.13;;;;;;;-145.69;44.64;71569.53;5072587;28;20214;-77
2022/03/13 09:11:39;;;;;;;24.87;10.20;;;;;;;-145.69;41.45;71563.56;5072428;28;20673;-77
2022/03/13 09:14:10;;;;;;;25.93;10.97;;;;;;;-145.69;41.67;71539.69;5072385;28;20226;-77
2022/03/13 09:16:41;;;;;;;22.70;9.53;;;;;;;-145.69;39.96;71533.72;5073397;28;20231;-78
2022/03/13 09:19:08;;;;;;;23.47;10.43;;;;;;;-145.69;41.39;71527.75;5076453;28;20208;-77
2022/03/13 09:21:38;;;;;;;25.67;11.17;;;;;;;-145.69;41.07;71519.81;5076391;28;20203;-77
2022/03/13 09:24:05;;;;;;;25.77;11.37;;;;;;;-145.69;41.67;71511.84;5076402;28;20226;-78
2022/03/13 09:26:35;;;;;;;21.63;9.63;;;;;;;-145.69;40.52;71521.78;5076562;28;20225;-77
2022/03/13 09:29:04;;;;;;;21.03;9.43;;;;;;;-145.69;40.70;71519.81;5076403;28;20626;-77
2022/03/13 09:31:34;;;;;;;22.67;9.87;;;;;;;-145.69;40.14;71509.84;5076176;28;20276;-77
2022/03/13 09:34:01;;;;;;;17.50;8.37;;;;;;;-145.69;41.23;71521.78;5076486;28;20209;-77
2022/03/13 09:36:36;;;;;;;29.13;12.33;;;;;;;-145.69;40.80;71505.88;5076224;28;20207;-77
2022/03/13 09:39:03;;;;;;;28.83;10.67;;;;;;;-145.69;40.63;71493.94;5076339;28;20257;-77
2022/03/13 09:41:32;;;;;;;25.10;9.87;;;;;;;-145.69;41.41;71493.94;5076132;28;20206;-77
2022/03/13 09:44:00;;;;;;;22.03;10.37;;;;;;;-145.69;39.83;71482.00;5075887;28;20313;-77
2022/03/13 09:46:31;;;;;;;21.17;10.13;;;;;;;-145.69;40.05;71468.06;5076264;28;20203;-76
2022/03/13 09:48:59;;;;;;;24.80;10.10;;;;;;;-145.69;40.53;71474.03;5075769;28;20607;-78
2022/03/13 09:51:25;;;;;;;21.73;9.87;;;;;;;-145.69;39.93;71485.97;5055499;28;20196;-77
2022/03/13 09:53:52;;;;;;;25.80;11.10;;;;;;;-145.69;40.99;71478.00;5056042;28;20314;-77
2022/03/13 09:56:18;;;;;;;23.73;9.83;;;;;;;-145.69;40.76;71450.16;5055654;28;20654;-77
2022/03/13 09:58:45;;;;;;;22.00;10.23;;;;;;;-145.69;40.53;71418.31;5055733;28;20658;-77
2022/03/13 10:01:15;;;;;;;24.60;10.50;;;;;;;-145.69;39.50;71442.19;5055841;28;20196;-77
2022/03/13 10:03:41;;;;;;;28.23;11.63;;;;;;;-145.69;39.88;71454.13;5055923;28;20254;-77
2022/03/13 10:06:09;;;;;;;23.17;10.77;;;;;;;-145.69;40.38;71442.19;5055716;28;20195;-77
2022/03/13 10:08:36;;;;;;;24.73;10.33;;;;;;;-145.69;41.18;71446.16;5055233;28;20199;-78
2022/03/13 10:11:03;;;;;;;22.57;11.17;;;;;;;-145.69;41.13;71426.28;5055699;28;20199;-77
2022/03/13 10:13:35;;;;;;;22.53;10.30;;;;;;;-145.69;39.85;71422.28;5075346;28;20234;-77
2022/03/13 10:16:02;;;;;;;24.77;11.27;;;;;;;-145.69;41.39;71390.47;5075559;28;20207;-76
2022/03/13 10:18:29;;;;;;;28.03;11.37;;;;;;;-145.69;40.35;71376.53;5075602;28;20289;-76
2022/03/13 10:20:56;;;;;;;28.27;10.50;;;;;;;-145.69;40.76;71346.69;5075176;28;20202;-75
2022/03/13 10:23:24;;;;;;;25.87;11.97;;;;;;;-145.69;39.40;71348.66;5062053;28;20272;-76
2022/03/13 10:25:52;;;;;;;26.93;11.87;;;;;;;-145.69;40.01;71336.72;5055112;28;20257;-78
2022/03/13 10:28:21;;;;;;;23.00;10.73;;;;;;;-145.69;39.27;71340.72;5053663;28;20207;-78
2022/03/13 10:31:04;;;;;;;26.43;11.67;;;;;;;-145.69;39.43;71358.63;5055239;28;20206;-78
2022/03/13 10:33:51;;;;;;;28.13;11.73;;;;;;;-145.69;39.93;71334.75;5055087;28;20200;-78
2022/03/13 10:36:21;;;;;;;25.40;11.47;;;;;;;-145.69;38.84;71318.81;5055003;28;20199;-76
2022/03/13 10:38:50;;;;;;;25.43;11.67;;;;;;;-145.69;38.72;71330.75;5055082;28;20210;-76
2022/03/13 10:41:17;;;;;;;22.17;11.33;;;;;;;-145.69;39.34;71330.75;5055064;28;20199;-76
2022/03/13 10:43:57;;;;;;;26.00;11.70;;;;;;;-145.69;39.44;71310.84;5054428;28;20227;-75
2022/03/13 10:46:25;;;;;;;30.97;11.67;;;;;;;-145.69;39.32;71310.84;5054889;28;20203;-75
2022/03/13 10:48:53;;;;;;;24.63;11.27;;;;;;;-145.69;39.73;71277.03;5054778;28;20196;-76
2022/03/13 10:51:33;;;;;;;24.13;10.90;;;;;;;-145.69;39.29;71249.19;5054582;28;20733;-76
2022/03/13 10:54:02;;;;;;;31.23;11.47;;;;;;;-145.69;38.88;71255.16;5054322;28;20207;-76
2022/03/13 10:56:30;;;;;;;25.43;11.77;;;;;;;-145.69;39.18;71257.13;5054338;28;20207;-77
2022/03/13 10:58:58;;;;;;;24.47;11.30;;;;;;;-145.69;39.81;71249.19;5054528;28;20199;-75
2022/03/13 11:01:25;;;;;;;26.07;12.37;;;;;;;-145.69;39.44;71225.31;5054499;28;20207;-75
2022/03/13 11:03:53;;;;;;;24.70;11.73;;;;;;;-145.69;38.79;71221.31;5054470;28;20231;-76
2022/03/13 11:06:21;;;;;;;28.13;13.00;;;;;;;-145.69;38.24;71201.41;5054562;28;20633;-75